createdAt,value
2018-10-07T00:02:24.827Z,1.23
2018-10-07T00:04:55.442Z,1.30
2018-10-07T00:07:25.677Z,0.90
2018-10-07T00:09:55.152Z,1.20
2018-10-07T00:12:26.061Z,1.00
2018-10-07T00:14:57.929Z,1.03
2018-10-07T00:17:28.734Z,1.20
2018-10-07T00:19:59.027Z,1.37
2018-10-07T00:22:30.754Z,0.97
2018-10-07T00:25:00.426Z,1.07
2018-10-07T00:27:31.167Z,1.10
2018-10-07T00:30:02.782Z,1.23
2018-10-07T00:32:34.312Z,0.97
2018-10-07T00:35:05.162Z,1.10
2018-10-07T00:37:35.240Z,1.10
2018-10-07T00:40:04.460Z,0.93
2018-10-07T00:42:36.595Z,1.10
2018-10-07T00:45:07.342Z,1.13
2018-10-07T00:47:37.117Z,1.30
2018-10-07T00:50:09.008Z,1.20
2018-10-07T00:52:38.986Z,1.00
2018-10-07T00:55:10.746Z,1.10
2018-10-07T00:57:43.368Z,0.97
2018-10-07T01:00:13.517Z,1.10
2018-10-07T01:02:44.158Z,1.13
2018-10-07T01:05:15.565Z,1.10
2018-10-07T01:07:45.381Z,1.10
2018-10-07T01:10:15.319Z,1.43
2018-10-07T01:12:46.039Z,1.33
2018-10-07T01:15:17.639Z,1.20
2018-10-07T01:17:50.161Z,1.10
2018-10-07T01:20:21.433Z,1.10
2018-10-07T01:22:53.297Z,1.10
2018-10-07T01:25:24.632Z,0.97
2018-10-07T01:27:55.475Z,1.20
2018-10-07T01:30:26.699Z,1.00
2018-10-07T01:32:57.057Z,1.27
2018-10-07T01:35:27.289Z,1.20
2018-10-07T01:37:56.933Z,0.90
2018-10-07T01:40:28.025Z,1.07
2018-10-07T01:42:59.144Z,1.10
2018-10-07T01:45:30.404Z,1.20
2018-10-07T01:48:01.629Z,1.20
2018-10-07T01:50:32.820Z,1.30
2018-10-07T01:53:04.046Z,1.20
2018-10-07T01:55:34.407Z,1.00
2018-10-07T01:58:04.348Z,1.00
2018-10-07T02:00:34.956Z,1.20
2018-10-07T02:03:04.712Z,1.13
2018-10-07T02:05:36.138Z,1.03
2018-10-07T02:08:06.774Z,1.30
2018-10-07T02:10:37.548Z,1.30
2018-10-07T02:13:07.302Z,1.10
2018-10-07T02:15:36.988Z,1.10
2018-10-07T02:18:07.757Z,1.03
2018-10-07T02:20:39.056Z,1.40
2018-10-07T02:23:10.008Z,1.17
2018-10-07T02:25:41.577Z,1.60
2018-10-07T02:28:13.089Z,1.17
2018-10-07T02:30:45.136Z,1.30
2018-10-07T02:33:17.015Z,1.40
2018-10-07T02:35:47.659Z,1.30
2018-10-07T02:38:18.741Z,1.13
2018-10-07T02:40:49.126Z,1.07
2018-10-07T02:43:19.357Z,1.10
2018-10-07T02:45:49.645Z,1.30
2018-10-07T02:48:21.610Z,1.10
2018-10-07T02:50:52.703Z,1.00
2018-10-07T02:53:23.379Z,0.93
2018-10-07T02:55:53.404Z,1.33
2018-10-07T02:58:24.962Z,1.00
2018-10-07T03:00:55.986Z,1.10
2018-10-07T03:03:24.891Z,1.00
2018-10-07T03:05:57.345Z,1.23
2018-10-07T03:08:28.830Z,1.10
2018-10-07T03:10:59.485Z,1.20
2018-10-07T03:13:30.978Z,1.10
2018-10-07T03:16:01.835Z,1.40
2018-10-07T03:18:32.350Z,1.10
2018-10-07T03:21:02.579Z,1.10
2018-10-07T03:23:32.616Z,1.30
2018-10-07T03:26:03.127Z,1.13
2018-10-07T03:28:33.173Z,1.13
2018-10-07T03:31:03.320Z,1.03
2018-10-07T03:33:33.393Z,1.37
2018-10-07T03:36:04.063Z,1.13
2018-10-07T03:38:34.119Z,1.10
2018-10-07T03:41:06.879Z,1.37
2018-10-07T03:43:37.066Z,1.03
2018-10-07T03:46:07.041Z,1.10
2018-10-07T03:48:36.874Z,1.20
2018-10-07T03:51:07.405Z,1.10
2018-10-07T03:53:38.071Z,1.10
2018-10-07T03:56:09.416Z,0.90
2018-10-07T03:58:38.677Z,1.10
2018-10-07T04:01:10.073Z,1.00
2018-10-07T04:03:41.649Z,1.30
2018-10-07T04:06:13.160Z,1.17
2018-10-07T04:08:43.979Z,1.20
2018-10-07T04:11:14.116Z,1.10
2018-10-07T04:13:44.812Z,1.33
2018-10-07T04:16:15.806Z,1.00
2018-10-07T04:18:45.713Z,1.30
2018-10-07T04:21:16.466Z,1.30
2018-10-07T04:23:46.360Z,0.90
2018-10-07T04:26:16.167Z,1.20
2018-10-07T04:28:45.158Z,1.20
2018-10-07T04:31:16.624Z,1.00
2018-10-07T04:33:47.030Z,1.03
2018-10-07T04:36:17.620Z,1.00
2018-10-07T04:38:47.188Z,0.97
2018-10-07T04:41:18.837Z,1.00
2018-10-07T04:43:49.544Z,1.10
2018-10-07T04:46:22.221Z,1.10
2018-10-07T04:48:53.471Z,0.90
2018-10-07T04:51:24.113Z,1.00
2018-10-07T04:53:53.904Z,0.80
2018-10-07T04:56:24.410Z,0.80
2018-10-07T04:58:55.622Z,0.97
2018-10-07T05:01:26.909Z,0.90
2018-10-07T05:03:57.773Z,0.90
2018-10-07T05:06:36.942Z,0.80
2018-10-07T05:09:12.365Z,0.80
2018-10-07T05:11:43.445Z,0.80
2018-10-07T05:14:14.397Z,0.63
2018-10-07T05:16:49.842Z,0.90
2018-10-07T05:19:21.681Z,0.70
2018-10-07T05:21:53.410Z,0.90
2018-10-07T05:24:22.705Z,0.80
2018-10-07T05:26:52.081Z,0.90
2018-10-07T05:29:24.596Z,0.80
2018-10-07T05:31:54.704Z,0.80
2018-10-07T05:34:25.226Z,0.80
2018-10-07T05:36:55.061Z,0.70
2018-10-07T05:39:24.877Z,0.73
2018-10-07T05:41:56.187Z,0.80
2018-10-07T05:44:25.944Z,0.70
2018-10-07T05:46:55.810Z,0.87
2018-10-07T05:49:25.629Z,0.80
2018-10-07T05:51:56.872Z,0.60
2018-10-07T05:54:27.713Z,0.73
2018-10-07T05:56:57.478Z,0.70
2018-10-07T05:59:28.101Z,0.80
2018-10-07T06:02:01.380Z,0.80
2018-10-07T06:04:48.980Z,0.80
2018-10-07T06:07:19.282Z,0.80
2018-10-07T06:09:50.178Z,0.80
2018-10-07T06:12:20.697Z,0.80
2018-10-07T06:15:02.732Z,0.90
2018-10-07T06:17:33.506Z,0.80
2018-10-07T06:20:04.769Z,0.80
2018-10-07T06:22:35.158Z,0.60
2018-10-07T06:25:06.926Z,1.10
2018-10-07T06:27:36.850Z,0.50
2018-10-07T06:30:06.364Z,0.70
2018-10-07T06:32:36.013Z,0.70
2018-10-07T06:35:06.755Z,1.00
2018-10-07T06:37:36.505Z,0.50
2018-10-07T06:40:06.238Z,0.80
2018-10-07T06:42:36.853Z,0.73
2018-10-07T06:45:06.537Z,0.90
2018-10-07T06:47:35.572Z,0.80
2018-10-07T06:50:07.087Z,0.70
2018-10-07T06:52:38.405Z,0.90
2018-10-07T06:55:09.891Z,0.80
2018-10-07T06:57:40.477Z,0.90
2018-10-07T07:00:11.136Z,0.60
2018-10-07T07:02:41.636Z,0.70
2018-10-07T07:05:12.976Z,0.90
2018-10-07T07:07:44.148Z,0.87
2018-10-07T07:10:14.611Z,0.73
2018-10-07T07:12:45.484Z,0.83
2018-10-07T07:15:16.253Z,0.80
2018-10-07T07:17:47.092Z,1.13
2018-10-07T07:20:16.112Z,0.80
2018-10-07T07:22:45.330Z,0.90
2018-10-07T07:25:16.228Z,1.17
2018-10-07T07:27:46.339Z,0.70
2018-10-07T07:30:15.306Z,0.80
2018-10-07T07:32:45.748Z,0.77
2018-10-07T07:35:17.544Z,1.13
2018-10-07T07:37:47.269Z,1.33
2018-10-07T07:40:16.098Z,0.90
2018-10-07T07:42:47.137Z,0.80
2018-10-07T07:45:17.664Z,0.80
2018-10-07T07:47:48.248Z,0.73
2018-10-07T07:50:20.960Z,0.87
2018-10-07T07:52:52.757Z,0.93
2018-10-07T07:55:23.355Z,0.80
2018-10-07T07:57:53.819Z,0.67
2018-10-07T08:00:24.664Z,0.70
2018-10-07T08:02:55.553Z,0.73
2018-10-07T08:05:26.183Z,0.90
2018-10-07T08:07:57.065Z,0.80
2018-10-07T08:10:26.863Z,1.07
2018-10-07T08:12:56.637Z,0.80
2018-10-07T08:15:27.169Z,1.03
2018-10-07T08:17:56.878Z,0.90
2018-10-07T08:20:27.865Z,0.80
2018-10-07T08:22:58.783Z,1.40
2018-10-07T08:25:30.652Z,0.80
2018-10-07T08:28:02.477Z,0.90
2018-10-07T08:30:33.878Z,0.87
2018-10-07T08:33:04.738Z,0.80
2018-10-07T08:35:34.784Z,1.00
2018-10-07T08:38:04.609Z,0.80
2018-10-07T08:40:34.650Z,1.10
2018-10-07T08:43:04.771Z,0.87
2018-10-07T08:45:34.301Z,1.20
2018-10-07T08:48:05.189Z,0.87
2018-10-07T08:50:36.177Z,0.90
2018-10-07T08:53:06.358Z,0.70
2018-10-07T08:55:38.373Z,0.70
2018-10-07T08:58:07.974Z,0.77
2018-10-07T09:00:38.703Z,1.27
2018-10-07T09:03:09.469Z,1.00
2018-10-07T09:05:40.210Z,1.10
2018-10-07T09:08:11.589Z,0.80
2018-10-07T09:10:42.182Z,0.80
2018-10-07T09:13:14.180Z,0.90
2018-10-07T09:15:45.709Z,0.97
2018-10-07T09:18:17.414Z,0.70
2018-10-07T09:20:47.240Z,0.70
2018-10-07T09:23:17.004Z,0.70
2018-10-07T09:25:46.738Z,0.70
2018-10-07T09:28:16.390Z,0.60
2018-10-07T09:30:47.279Z,0.70
2018-10-07T09:33:18.444Z,0.80
2018-10-07T09:35:49.803Z,0.70
2018-10-07T09:38:20.388Z,0.70
2018-10-07T09:40:50.130Z,0.80
2018-10-07T09:43:21.169Z,0.80
2018-10-07T09:45:51.058Z,0.80
2018-10-07T09:48:21.907Z,0.70
2018-10-07T09:50:53.121Z,0.80
2018-10-07T09:53:23.145Z,0.90
2018-10-07T09:55:53.910Z,0.83
2018-10-07T09:58:25.826Z,0.70
2018-10-07T10:00:56.671Z,0.77
2018-10-07T10:03:28.859Z,0.70
2018-10-07T10:05:59.483Z,0.70
2018-10-07T10:08:30.867Z,0.60
2018-10-07T10:11:02.396Z,0.73
2018-10-07T10:13:33.056Z,0.87
2018-10-07T10:16:04.709Z,0.60
2018-10-07T10:18:40.171Z,0.50
2018-10-07T10:22:21.287Z,0.80
2018-10-07T10:25:34.140Z,0.70
2018-10-07T10:28:14.895Z,0.60
2018-10-07T10:30:54.052Z,0.37
2018-10-07T10:33:30.571Z,0.50
2018-10-07T10:36:13.065Z,0.50
2018-10-07T10:40:59.036Z,0.40
2018-10-07T10:43:42.194Z,0.62
2018-10-07T10:46:14.845Z,0.50
2018-10-07T10:51:01.943Z,0.57
2018-10-07T10:53:46.325Z,0.50
2018-10-07T10:56:26.596Z,1.00
2018-10-07T11:01:14.561Z,0.85
2018-10-07T11:03:52.053Z,0.90
2018-10-07T11:06:39.512Z,0.72
2018-10-07T11:09:15.321Z,0.72
2018-10-07T11:12:04.907Z,0.88
2018-10-07T11:16:05.694Z,0.80
2018-10-07T11:18:45.281Z,0.70
2018-10-07T11:22:25.624Z,0.70
2018-10-07T11:30:45.695Z,0.75
2018-10-07T11:34:28.194Z,0.62
2018-10-07T11:37:08.308Z,0.72
2018-10-07T11:39:53.874Z,0.65
2018-10-07T11:42:36.593Z,0.70
2018-10-07T11:45:16.672Z,0.60
2018-10-07T11:47:57.741Z,0.70
2018-10-07T11:50:36.595Z,0.80
2018-10-07T11:53:15.986Z,1.22
2018-10-07T11:55:46.819Z,0.70
2018-10-07T11:58:17.688Z,0.70
2018-10-07T12:00:46.859Z,0.90
2018-10-07T12:03:17.865Z,0.50
2018-10-07T12:05:46.747Z,0.60
2018-10-07T12:08:17.199Z,0.65
2018-10-07T12:10:46.635Z,0.70
2018-10-07T12:13:15.924Z,3.55
2018-10-07T12:15:47.629Z,5.08
2018-10-07T12:18:17.275Z,5.87
2018-10-07T12:20:48.029Z,2.12
2018-10-07T12:23:18.755Z,1.30
2018-10-07T12:25:48.591Z,0.70
2018-10-07T12:28:19.449Z,1.00
2018-10-07T12:30:49.441Z,0.85
2018-10-07T12:33:19.329Z,0.53
2018-10-07T12:35:49.825Z,0.75
2018-10-07T12:38:21.322Z,0.60
2018-10-07T12:40:51.029Z,0.47
2018-10-07T12:43:22.238Z,0.80
2018-10-07T12:45:51.990Z,0.68
2018-10-07T12:48:22.844Z,0.88
2018-10-07T12:50:54.473Z,0.70
2018-10-07T12:53:25.924Z,0.60
2018-10-07T12:55:56.452Z,0.60
2018-10-07T12:58:27.186Z,0.50
2018-10-07T13:00:58.272Z,0.55
2018-10-07T13:03:29.542Z,0.50
2018-10-07T13:06:00.311Z,0.50
2018-10-07T13:08:32.525Z,0.50
2018-10-07T13:11:02.167Z,0.50
2018-10-07T13:13:33.010Z,0.60
2018-10-07T13:16:04.580Z,0.50
2018-10-07T13:18:34.905Z,0.70
2018-10-07T13:21:04.473Z,0.50
2018-10-07T13:23:34.876Z,0.40
2018-10-07T13:26:05.333Z,0.70
2018-10-07T13:28:34.180Z,0.70
2018-10-07T13:31:05.106Z,0.70
2018-10-07T13:33:35.855Z,0.73
2018-10-07T13:36:05.542Z,0.60
2018-10-07T13:38:34.600Z,0.67
2018-10-07T13:41:03.356Z,0.60
2018-10-07T13:43:32.701Z,0.50
2018-10-07T13:46:03.134Z,0.60
2018-10-07T13:48:31.965Z,0.60
2018-10-07T13:51:01.377Z,0.60
2018-10-07T13:53:31.412Z,0.77
2018-10-07T13:56:00.559Z,0.50
2018-10-07T13:58:29.977Z,0.70
2018-10-07T14:00:59.835Z,0.60
2018-10-07T14:03:28.775Z,0.60
2018-10-07T14:05:57.853Z,0.50
2018-10-07T14:08:28.093Z,0.60
2018-10-07T14:11:00.531Z,0.50
2018-10-07T14:13:30.430Z,0.60
2018-10-07T14:16:00.519Z,0.50
2018-10-07T14:18:29.662Z,0.60
2018-10-07T14:20:59.919Z,0.60
2018-10-07T14:23:30.984Z,0.70
2018-10-07T14:26:01.086Z,0.60
2018-10-07T14:28:31.356Z,0.80
2018-10-07T14:31:01.859Z,0.73
2018-10-07T14:33:32.192Z,0.60
2018-10-07T14:36:01.617Z,0.47
2018-10-07T14:38:32.521Z,0.50
2018-10-07T14:41:04.842Z,0.50
2018-10-07T14:43:35.255Z,0.60
2018-10-07T14:46:04.891Z,0.50
2018-10-07T14:48:34.736Z,0.50
2018-10-07T14:51:04.141Z,0.40
2018-10-07T14:53:35.869Z,0.50
2018-10-07T14:56:05.840Z,0.60
2018-10-07T14:58:36.394Z,0.67
2018-10-07T15:01:07.526Z,0.60
2018-10-07T15:03:37.432Z,0.37
2018-10-07T15:06:07.207Z,0.60
2018-10-07T15:08:38.241Z,0.50
2018-10-07T15:11:07.597Z,0.50
2018-10-07T15:13:38.012Z,0.60
2018-10-07T15:16:08.145Z,0.50
2018-10-07T15:18:38.913Z,0.50
2018-10-07T15:21:09.943Z,0.70
2018-10-07T15:23:39.674Z,0.80
2018-10-07T15:26:09.421Z,0.80
2018-10-07T15:28:39.742Z,0.70
2018-10-07T15:31:10.183Z,0.83
2018-10-07T15:33:40.495Z,0.70
2018-10-07T15:36:10.669Z,0.60
2018-10-07T15:38:41.773Z,0.60
2018-10-07T15:41:11.749Z,0.47
2018-10-07T15:43:41.222Z,0.50
2018-10-07T15:46:12.297Z,0.70
2018-10-07T15:48:43.473Z,0.50
2018-10-07T15:51:14.190Z,0.50
2018-10-07T15:53:45.442Z,0.70
2018-10-07T15:56:15.588Z,0.60
2018-10-07T15:58:46.781Z,0.50
2018-10-07T16:01:17.167Z,0.60
2018-10-07T16:03:47.308Z,0.47
2018-10-07T16:06:17.293Z,0.70
2018-10-07T16:08:47.920Z,0.67
2018-10-07T16:11:19.774Z,0.60
2018-10-07T16:13:51.089Z,0.90
2018-10-07T16:16:21.513Z,0.70
2018-10-07T16:18:53.756Z,0.70
2018-10-07T16:21:24.272Z,0.90
2018-10-07T16:23:54.919Z,1.07
2018-10-07T16:26:24.282Z,1.20
2018-10-07T16:28:55.830Z,0.80
2018-10-07T16:31:26.466Z,0.70
2018-10-07T16:33:56.484Z,0.80
2018-10-07T16:36:26.046Z,0.80
2018-10-07T16:38:56.692Z,1.00
2018-10-07T16:41:26.894Z,0.83
2018-10-07T16:43:57.444Z,0.80
2018-10-07T16:46:29.374Z,0.90
2018-10-07T16:49:00.049Z,0.80
2018-10-07T16:51:30.602Z,1.00
2018-10-07T16:54:00.160Z,0.73
2018-10-07T16:56:30.884Z,0.80
2018-10-07T16:59:01.411Z,0.90
2018-10-07T17:01:32.841Z,1.00
2018-10-07T17:04:02.849Z,2.00
2018-10-07T17:06:32.789Z,3.80
2018-10-07T17:09:02.930Z,3.13
2018-10-07T17:11:33.451Z,2.93
2018-10-07T17:14:02.858Z,2.70
2018-10-07T17:16:31.672Z,2.40
2018-10-07T17:19:02.182Z,2.30
2018-10-07T17:21:32.651Z,2.00
2018-10-07T17:24:03.001Z,2.00
2018-10-07T17:26:33.185Z,1.73
2018-10-07T17:29:04.521Z,1.67
2018-10-07T17:31:35.555Z,1.97
2018-10-07T17:34:06.658Z,1.80
2018-10-07T17:36:36.940Z,1.83
2018-10-07T17:39:10.255Z,1.93
2018-10-07T17:41:40.451Z,1.83
2018-10-07T17:44:09.909Z,1.70
2018-10-07T17:46:41.141Z,1.80
2018-10-07T17:49:11.818Z,1.90
2018-10-07T17:51:41.685Z,2.13
2018-10-07T17:54:11.549Z,2.20
2018-10-07T17:56:42.781Z,2.20
2018-10-07T17:59:11.847Z,2.07
2018-10-07T18:01:42.016Z,2.23
2018-10-07T18:04:13.169Z,2.50
2018-10-07T18:06:43.866Z,2.20
2018-10-07T18:09:20.666Z,2.50
2018-10-07T18:11:50.554Z,2.67
2018-10-07T18:14:19.666Z,2.80
2018-10-07T18:16:50.904Z,3.00
2018-10-07T18:19:20.216Z,2.60
2018-10-07T18:21:51.693Z,3.40
2018-10-07T18:24:23.631Z,3.10
2018-10-07T18:26:55.024Z,3.03
2018-10-07T18:29:25.245Z,2.97
2018-10-07T18:31:55.207Z,2.97
2018-10-07T18:34:25.204Z,3.37
2018-10-07T18:36:55.749Z,3.43
2018-10-07T18:39:26.285Z,3.33
2018-10-07T18:41:55.784Z,3.33
2018-10-07T18:44:25.464Z,3.50
2018-10-07T18:46:56.074Z,3.10
2018-10-07T18:49:26.027Z,3.00
2018-10-07T18:51:56.931Z,3.33
2018-10-07T18:54:27.586Z,2.93
2018-10-07T18:56:57.478Z,3.53
2018-10-07T18:59:29.259Z,3.33
2018-10-07T19:01:58.360Z,3.10
2018-10-07T19:04:28.531Z,3.20
2018-10-07T19:07:00.256Z,3.23
2018-10-07T19:09:31.624Z,3.40
2018-10-07T19:12:01.973Z,2.97
2018-10-07T19:14:31.264Z,3.30
2018-10-07T19:17:01.407Z,3.77
2018-10-07T19:19:31.320Z,4.03
2018-10-07T19:22:00.579Z,5.10
2018-10-07T19:24:30.524Z,4.33
2018-10-07T19:27:01.943Z,3.60
2018-10-07T19:29:31.451Z,3.30
2018-10-07T19:32:01.435Z,3.43
2018-10-07T19:34:31.138Z,4.50
2018-10-07T19:37:01.121Z,4.43
2018-10-07T19:39:30.288Z,3.80
2018-10-07T19:41:59.210Z,4.20
2018-10-07T19:44:29.714Z,3.70
2018-10-07T19:47:00.244Z,4.10
2018-10-07T19:49:31.001Z,3.90
2018-10-07T19:52:02.006Z,4.17
2018-10-07T19:54:32.337Z,4.43
2018-10-07T19:57:03.031Z,4.00
2018-10-07T19:59:34.183Z,4.23
2018-10-07T20:02:03.000Z,4.53
2018-10-07T20:04:33.851Z,4.10
2018-10-07T20:07:03.850Z,4.50
2018-10-07T20:09:33.902Z,4.13
2018-10-07T20:12:04.802Z,4.40
2018-10-07T20:14:34.782Z,5.23
2018-10-07T20:17:04.328Z,4.73
2018-10-07T20:19:34.788Z,4.53
2018-10-07T20:22:04.484Z,4.47
2018-10-07T20:24:34.454Z,4.10
2018-10-07T20:27:03.827Z,4.37
2018-10-07T20:29:33.885Z,3.97
2018-10-07T20:32:03.586Z,4.27
2018-10-07T20:34:32.886Z,4.43
2018-10-07T20:37:05.450Z,4.43
2018-10-07T20:39:35.393Z,4.57
2018-10-07T20:42:04.518Z,4.30
2018-10-07T20:44:33.897Z,4.30
2018-10-07T20:47:03.725Z,4.67
2018-10-07T20:49:33.136Z,4.30
2018-10-07T20:52:02.817Z,4.27
2018-10-07T20:54:32.785Z,4.33
2018-10-07T20:57:03.385Z,4.07
2018-10-07T20:59:34.020Z,4.30
2018-10-07T21:02:03.933Z,3.43
2018-10-07T21:04:34.388Z,3.80
2018-10-07T21:07:04.692Z,3.10
2018-10-07T21:09:35.883Z,3.80
2018-10-07T21:12:05.736Z,3.87
2018-10-07T21:14:35.370Z,3.30
2018-10-07T21:17:08.239Z,2.23
2018-10-07T21:19:39.169Z,2.90
2018-10-07T21:22:10.995Z,2.90
2018-10-07T21:24:41.518Z,3.10
2018-10-07T21:27:12.978Z,2.57
2018-10-07T21:29:43.642Z,2.53
2018-10-07T21:32:14.899Z,2.40
2018-10-07T21:34:44.889Z,2.63
2018-10-07T21:37:16.285Z,2.30
2018-10-07T21:39:47.611Z,2.10
2018-10-07T21:42:18.373Z,2.50
2018-10-07T21:44:51.133Z,2.30
2018-10-07T21:47:20.862Z,2.93
2018-10-07T21:49:51.273Z,3.07
2018-10-07T21:52:21.940Z,3.83
2018-10-07T21:54:51.209Z,4.00
2018-10-07T21:57:22.064Z,3.07
2018-10-07T21:59:53.771Z,2.60
2018-10-07T22:02:24.817Z,2.70
2018-10-07T22:04:55.313Z,3.00
2018-10-07T22:07:27.827Z,3.63
2018-10-07T22:09:59.007Z,3.13
2018-10-07T22:12:30.710Z,2.87
2018-10-07T22:15:01.412Z,2.30
2018-10-07T22:17:31.189Z,2.80
2018-10-07T22:20:00.809Z,2.77
2018-10-07T22:22:30.747Z,2.30
2018-10-07T22:25:01.440Z,3.17
2018-10-07T22:27:31.452Z,2.13
2018-10-07T22:30:01.950Z,2.20
2018-10-07T22:32:33.398Z,1.83
2018-10-07T22:35:03.290Z,1.80
2018-10-07T22:37:33.468Z,1.77
2018-10-07T22:40:05.030Z,1.67
2018-10-07T22:42:37.216Z,1.67
2018-10-07T22:45:08.197Z,1.50
2018-10-07T22:47:39.022Z,1.50
2018-10-07T22:50:10.947Z,1.23
2018-10-07T22:52:43.073Z,1.67
2018-10-07T22:55:11.928Z,1.30
2018-10-07T22:57:42.083Z,1.20
2018-10-07T23:00:13.210Z,1.43
2018-10-07T23:02:43.239Z,1.40
2018-10-07T23:05:14.861Z,1.53
2018-10-07T23:07:45.591Z,1.40
2018-10-07T23:10:16.495Z,1.43
2018-10-07T23:12:46.449Z,1.37
2018-10-07T23:15:17.063Z,1.20
2018-10-07T23:17:49.086Z,1.10
2018-10-07T23:20:20.421Z,1.23
2018-10-07T23:22:49.921Z,1.10
2018-10-07T23:25:19.977Z,0.97
2018-10-07T23:27:50.237Z,0.90
2018-10-07T23:30:20.841Z,0.77
2018-10-07T23:32:50.699Z,1.00
2018-10-07T23:35:20.903Z,0.80
2018-10-07T23:37:52.268Z,0.73
2018-10-07T23:40:24.060Z,0.80
2018-10-07T23:42:55.050Z,0.70
2018-10-07T23:45:25.648Z,0.90
2018-10-07T23:47:56.311Z,0.60
2018-10-07T23:50:28.157Z,0.70
2018-10-07T23:52:58.354Z,0.60
2018-10-07T23:55:28.427Z,0.70
2018-10-07T23:57:58.283Z,0.70
